Time;durP1;ratioP1;P1;durP2;ratioP2;P2;SDS_P1;SDS_P2;PMS_P1;PMS_P2;Temp;Humidity;BMP_temperature;BMP_pressure;BME280_temperature;BME280_humidity;BME280_pressure;Samples;Min_cycle;Max_cycle;Signal;HPM_P1;HPM_P2
2022/01/06 00:00:44;;;;;;;7.50;2.03;;;;;;;;;;4996975;28;20043;-70
2022/01/06 00:03:10;;;;;;;6.70;1.35;;;;;;;;;;4997874;28;20046;-70
2022/01/06 00:05:35;;;;;;;8.98;1.50;;;;;;;;;;4996408;28;20026;-70
2022/01/06 00:08:01;;;;;;;4.88;1.50;;;;;;;;;;4996807;28;20022;-70
2022/01/06 00:10:29;;;;;;;1.73;1.30;;;;;;;;;;4996468;28;20038;-70
2022/01/06 00:16:10;;;;;;;3.22;1.70;;;;;;;;;;4996569;28;20059;-70
2022/01/06 00:18:19;;;;;;;3.22;1.60;;;;;;;;;;4990164;28;20073;-70
2022/01/06 00:23:35;;;;;;;4.88;1.70;;;;;;;;;;4995687;28;20131;-70
2022/01/06 00:26:02;;;;;;;5.25;1.67;;;;;;;;;;4995661;28;20450;-70
2022/01/06 00:28:27;;;;;;;11.65;1.90;;;;;;;;;;4996272;28;20492;-71
2022/01/06 00:30:53;;;;;;;4.00;1.52;;;;;;;;;;4995183;28;20037;-71
2022/01/06 00:33:18;;;;;;;4.80;1.38;;;;;;;;;;4997527;28;20022;-71
2022/01/06 00:35:44;;;;;;;9.18;2.13;;;;;;;;;;4993885;28;20064;-71
2022/01/06 00:38:09;;;;;;;5.05;1.67;;;;;;;;;;4995888;28;20105;-70
2022/01/06 00:40:35;;;;;;;7.80;1.63;;;;;;;;;;4994676;28;20061;-70
2022/01/06 00:43:02;;;;;;;4.15;1.70;;;;;;;;;;4996673;28;20369;-71
2022/01/06 00:45:28;;;;;;;5.13;1.77;;;;;;;;;;4964354;28;20021;-70
2022/01/06 00:47:53;;;;;;;5.30;1.55;;;;;;;;;;4997584;28;20053;-70
2022/01/06 00:50:18;;;;;;;3.47;1.60;;;;;;;;;;4997312;28;20040;-68
2022/01/06 00:52:44;;;;;;;5.57;1.60;;;;;;;;;;4996998;28;20084;-70
2022/01/06 00:55:09;;;;;;;3.60;1.60;;;;;;;;;;4996060;28;20028;-70
2022/01/06 00:57:34;;;;;;;8.55;1.85;;;;;;;;;;4994749;28;20061;-71
2022/01/06 00:59:59;;;;;;;7.63;1.80;;;;;;;;;;4995648;28;20076;-70
2022/01/06 01:02:25;;;;;;;1.88;1.40;;;;;;;;;;4995288;28;20058;-70
2022/01/06 01:04:50;;;;;;;11.20;1.70;;;;;;;;;;4995332;28;20057;-70
2022/01/06 01:07:15;;;;;;;8.50;1.90;;;;;;;;;;4997278;28;20018;-70
2022/01/06 01:09:41;;;;;;;12.63;2.28;;;;;;;;;;4999402;28;20025;-70
2022/01/06 01:12:07;;;;;;;5.75;1.83;;;;;;;;;;4997958;28;20026;-70
2022/01/06 01:14:43;;;;;;;7.35;1.63;;;;;;;;;;4997289;28;20030;-71
2022/01/06 01:17:13;;;;;;;6.68;1.60;;;;;;;;;;4993628;28;20072;-70
2022/01/06 01:19:38;;;;;;;8.32;1.25;;;;;;;;;;4995094;28;20034;-71
2022/01/06 01:22:04;;;;;;;4.68;1.48;;;;;;;;;;4994550;28;20074;-70
2022/01/06 01:24:29;;;;;;;5.50;1.60;;;;;;;;;;4995763;28;20030;-70
2022/01/06 01:26:54;;;;;;;3.58;1.52;;;;;;;;;;4996053;28;20117;-71
2022/01/06 01:29:20;;;;;;;3.22;1.80;;;;;;;;;;4997523;28;20125;-71
2022/01/06 01:31:48;;;;;;;3.70;1.30;;;;;;;;;;4997046;28;20097;-70
2022/01/06 01:34:16;;;;;;;9.98;1.92;;;;;;;;;;4996951;28;20018;-70
2022/01/06 01:36:43;;;;;;;4.82;1.30;;;;;;;;;;4992775;28;20049;-70
2022/01/06 01:39:08;;;;;;;6.93;1.65;;;;;;;;;;4993833;28;20038;-70
2022/01/06 01:41:33;;;;;;;3.75;1.80;;;;;;;;;;4993646;28;20033;-70
2022/01/06 01:43:59;;;;;;;5.38;1.40;;;;;;;;;;4994841;28;20507;-70
2022/01/06 01:46:29;;;;;;;4.68;1.60;;;;;;;;;;4997067;28;20519;-70
2022/01/06 01:51:40;;;;;;;3.83;1.50;;;;;;;;;;4996310;28;20451;-71
2022/01/06 01:54:05;;;;;;;7.60;1.83;;;;;;;;;;4995884;28;20046;-70
2022/01/06 01:56:30;;;;;;;6.43;1.90;;;;;;;;;;4994336;28;20062;-70
2022/01/06 01:58:56;;;;;;;2.83;1.30;;;;;;;;;;4991310;28;20037;-70
2022/01/06 02:01:21;;;;;;;3.90;1.45;;;;;;;;;;4993091;28;20134;-70
2022/01/06 02:03:47;;;;;;;2.97;1.42;;;;;;;;;;4993640;28;20445;-70
2022/01/06 02:06:12;;;;;;;9.50;1.40;;;;;;;;;;4996490;28;20088;-69
2022/01/06 02:08:37;;;;;;;5.85;1.55;;;;;;;;;;4995347;28;20035;-69
2022/01/06 02:11:03;;;;;;;8.00;1.65;;;;;;;;;;4996481;28;20033;-69
2022/01/06 02:13:29;;;;;;;4.55;1.50;;;;;;;;;;4995362;28;20026;-68
2022/01/06 02:15:56;;;;;;;2.72;1.15;;;;;;;;;;4996027;28;20665;-69
2022/01/06 02:18:21;;;;;;;5.85;1.95;;;;;;;;;;4994206;28;20124;-68
2022/01/06 02:20:46;;;;;;;6.03;1.65;;;;;;;;;;4996416;28;20066;-70
2022/01/06 02:23:12;;;;;;;2.70;1.33;;;;;;;;;;4993307;28;20061;-71
2022/01/06 02:25:37;;;;;;;6.65;1.67;;;;;;;;;;4994754;28;20038;-68
2022/01/06 02:28:03;;;;;;;6.65;1.55;;;;;;;;;;4995653;28;20398;-69
2022/01/06 02:30:32;;;;;;;4.55;1.30;;;;;;;;;;4996336;28;20437;-68
2022/01/06 02:32:58;;;;;;;4.53;1.35;;;;;;;;;;4995268;28;20018;-70
2022/01/06 02:35:24;;;;;;;5.85;1.33;;;;;;;;;;4995750;28;20042;-70
2022/01/06 02:37:49;;;;;;;8.35;1.52;;;;;;;;;;4996068;28;20055;-70
2022/01/06 02:40:16;;;;;;;7.85;1.70;;;;;;;;;;4995117;28;20030;-70
2022/01/06 02:42:43;;;;;;;4.65;1.30;;;;;;;;;;4995240;28;20472;-68
2022/01/06 02:45:09;;;;;;;4.00;1.00;;;;;;;;;;4994309;28;20030;-68
2022/01/06 02:47:35;;;;;;;6.68;1.73;;;;;;;;;;4999602;28;20065;-69
2022/01/06 02:50:00;;;;;;;4.32;1.08;;;;;;;;;;5000005;28;20325;-68
2022/01/06 02:52:25;;;;;;;7.57;1.40;;;;;;;;;;4999964;28;20068;-69
2022/01/06 02:54:50;;;;;;;5.60;1.27;;;;;;;;;;5000804;28;20645;-69
2022/01/06 02:57:16;;;;;;;4.63;1.42;;;;;;;;;;4999562;28;20552;-69
2022/01/06 02:59:41;;;;;;;3.03;1.52;;;;;;;;;;4998685;28;20043;-68
2022/01/06 03:02:06;;;;;;;7.00;1.70;;;;;;;;;;5000097;28;20589;-70
2022/01/06 03:04:32;;;;;;;5.20;1.35;;;;;;;;;;4982896;28;20038;-70
2022/01/06 03:06:57;;;;;;;7.00;1.60;;;;;;;;;;4999150;28;20087;-70
2022/01/06 03:09:35;;;;;;;5.00;1.25;;;;;;;;;;4999977;28;20141;-70
2022/01/06 03:12:01;;;;;;;5.57;1.40;;;;;;;;;;4999045;28;20512;-70
2022/01/06 03:14:26;;;;;;;6.50;1.10;;;;;;;;;;4998263;28;20136;-70
2022/01/06 03:16:51;;;;;;;5.35;1.52;;;;;;;;;;4999299;28;20106;-70
2022/01/06 03:19:17;;;;;;;3.33;1.40;;;;;;;;;;4999734;28;20029;-70
2022/01/06 03:21:42;;;;;;;3.72;1.38;;;;;;;;;;5000097;28;20037;-70
2022/01/06 03:24:07;;;;;;;4.43;1.50;;;;;;;;;;4998360;28;20031;-70
2022/01/06 03:26:33;;;;;;;5.70;1.30;;;;;;;;;;4998192;28;20050;-70
2022/01/06 03:28:58;;;;;;;4.55;1.45;;;;;;;;;;4999054;28;20483;-70
2022/01/06 03:31:23;;;;;;;1.27;1.10;;;;;;;;;;4998050;28;20360;-70
2022/01/06 03:33:49;;;;;;;1.65;1.38;;;;;;;;;;4999846;28;20029;-70
2022/01/06 03:36:14;;;;;;;2.85;1.27;;;;;;;;;;4997944;28;20443;-70
2022/01/06 03:38:39;;;;;;;7.25;1.60;;;;;;;;;;4999323;28;20041;-70
2022/01/06 03:41:04;;;;;;;5.13;1.42;;;;;;;;;;4998671;28;20030;-70
2022/01/06 03:43:30;;;;;;;5.72;1.17;;;;;;;;;;4998786;28;20473;-70
2022/01/06 03:45:55;;;;;;;6.45;1.35;;;;;;;;;;4996780;28;20033;-70
2022/01/06 03:48:21;;;;;;;3.00;1.10;;;;;;;;;;4997530;28;20969;-70
2022/01/06 03:50:46;;;;;;;3.80;1.42;;;;;;;;;;4998998;28;20037;-70
2022/01/06 03:53:11;;;;;;;3.38;1.38;;;;;;;;;;4999368;28;20547;-70
2022/01/06 03:55:39;;;;;;;3.38;1.45;;;;;;;;;;4998820;28;20038;-70
2022/01/06 03:58:05;;;;;;;5.85;1.35;;;;;;;;;;4996749;28;20058;-70
2022/01/06 04:00:31;;;;;;;2.28;1.08;;;;;;;;;;4996998;28;20084;-70
2022/01/06 04:02:56;;;;;;;4.93;1.20;;;;;;;;;;4997762;28;20049;-70
2022/01/06 04:05:22;;;;;;;5.47;1.35;;;;;;;;;;4999021;28;20029;-70
2022/01/06 04:07:47;;;;;;;3.60;1.38;;;;;;;;;;4997905;28;20410;-70
2022/01/06 04:10:12;;;;;;;2.42;1.20;;;;;;;;;;4997890;28;20496;-70
2022/01/06 04:12:38;;;;;;;1.88;1.38;;;;;;;;;;4997822;28;20168;-70
2022/01/06 04:15:08;;;;;;;4.28;1.38;;;;;;;;;;4996841;28;20163;-70
2022/01/06 04:17:33;;;;;;;4.70;1.20;;;;;;;;;;4994016;28;20415;-70
2022/01/06 04:19:59;;;;;;;5.28;1.40;;;;;;;;;;4995901;28;20034;-70
2022/01/06 04:22:24;;;;;;;7.88;1.80;;;;;;;;;;4995999;28;20030;-70
2022/01/06 04:24:49;;;;;;;3.95;1.30;;;;;;;;;;4996232;28;20037;-70
2022/01/06 04:27:14;;;;;;;3.28;1.35;;;;;;;;;;4996193;28;20041;-70
2022/01/06 04:29:40;;;;;;;5.35;1.27;;;;;;;;;;4995628;28;20034;-70
2022/01/06 04:32:06;;;;;;;3.53;1.00;;;;;;;;;;4994130;28;20092;-70
2022/01/06 04:34:31;;;;;;;4.22;1.30;;;;;;;;;;4997608;28;20026;-70
2022/01/06 04:36:58;;;;;;;2.67;1.15;;;;;;;;;;4998452;28;21152;-70
2022/01/06 04:39:24;;;;;;;2.25;1.30;;;;;;;;;;4998517;28;20116;-70
2022/01/06 04:41:49;;;;;;;3.17;0.80;;;;;;;;;;4997630;28;20116;-70
2022/01/06 04:44:14;;;;;;;4.07;1.17;;;;;;;;;;4998939;28;20137;-70
2022/01/06 04:46:40;;;;;;;2.08;0.98;;;;;;;;;;4997201;28;20066;-70
2022/01/06 04:49:05;;;;;;;6.55;1.63;;;;;;;;;;4996656;28;20034;-70
2022/01/06 04:51:31;;;;;;;2.63;1.10;;;;;;;;;;4997589;28;20025;-70
2022/01/06 04:53:56;;;;;;;3.28;1.15;;;;;;;;;;4997508;28;20033;-70
2022/01/06 04:56:22;;;;;;;4.38;1.10;;;;;;;;;;4997547;28;20132;-70
2022/01/06 04:58:48;;;;;;;1.85;1.20;;;;;;;;;;4997471;28;20044;-70
2022/01/06 05:01:13;;;;;;;3.40;1.20;;;;;;;;;;4995895;28;20476;-70
2022/01/06 05:03:39;;;;;;;1.98;1.10;;;;;;;;;;4980163;28;20025;-70
2022/01/06 05:06:04;;;;;;;2.45;1.00;;;;;;;;;;4996133;28;20034;-68
2022/01/06 05:08:30;;;;;;;1.23;0.85;;;;;;;;;;4999752;28;20068;-69
2022/01/06 05:10:55;;;;;;;1.88;1.00;;;;;;;;;;4996621;28;20030;-69
2022/01/06 05:13:20;;;;;;;5.20;1.05;;;;;;;;;;5001233;28;20045;-69
2022/01/06 05:15:45;;;;;;;2.10;1.10;;;;;;;;;;4996108;28;20379;-69
2022/01/06 05:18:11;;;;;;;3.80;1.45;;;;;;;;;;5000554;28;20441;-69
2022/01/06 05:20:39;;;;;;;0.90;0.90;;;;;;;;;;4999727;28;20053;-68
2022/01/06 05:23:04;;;;;;;3.30;1.20;;;;;;;;;;4997034;28;20026;-69
2022/01/06 05:25:30;;;;;;;4.32;1.00;;;;;;;;;;4997746;28;20041;-69
2022/01/06 05:27:56;;;;;;;1.60;0.85;;;;;;;;;;4996762;28;20026;-68
2022/01/06 05:30:21;;;;;;;2.25;1.00;;;;;;;;;;4999518;28;20052;-68
2022/01/06 05:32:47;;;;;;;3.95;1.45;;;;;;;;;;4998461;28;20384;-69
2022/01/06 05:35:12;;;;;;;2.88;1.13;;;;;;;;;;4996335;28;20048;-68
2022/01/06 05:37:37;;;;;;;1.10;0.75;;;;;;;;;;4996567;28;20592;-68
2022/01/06 05:40:03;;;;;;;5.50;1.13;;;;;;;;;;4998496;28;20661;-68
2022/01/06 05:42:28;;;;;;;3.83;1.35;;;;;;;;;;4996283;28;21036;-69
2022/01/06 05:44:54;;;;;;;4.00;1.05;;;;;;;;;;4997203;28;20065;-69
2022/01/06 05:47:19;;;;;;;4.40;1.20;;;;;;;;;;4999196;28;20073;-69
2022/01/06 05:49:44;;;;;;;1.95;1.17;;;;;;;;;;4999425;28;20057;-69
2022/01/06 05:52:10;;;;;;;2.97;1.02;;;;;;;;;;4995714;28;20076;-69
2022/01/06 05:54:35;;;;;;;2.25;0.85;;;;;;;;;;4997043;28;20077;-69
2022/01/06 05:57:00;;;;;;;1.25;0.73;;;;;;;;;;5012905;28;20042;-69
2022/01/06 05:59:28;;;;;;;1.50;0.80;;;;;;;;;;4997469;28;20083;-69
2022/01/06 06:01:54;;;;;;;1.27;1.05;;;;;;;;;;4997670;28;20046;-68
2022/01/06 06:04:19;;;;;;;5.10;1.30;;;;;;;;;;4999705;28;20033;-68
2022/01/06 06:06:44;;;;;;;1.65;1.00;;;;;;;;;;5000908;28;20029;-69
2022/01/06 06:09:09;;;;;;;2.25;1.08;;;;;;;;;;4997727;28;20043;-68
2022/01/06 06:11:35;;;;;;;1.33;0.98;;;;;;;;;;5000973;28;20404;-68
2022/01/06 06:14:00;;;;;;;4.28;1.10;;;;;;;;;;4996276;28;20081;-69
2022/01/06 06:16:25;;;;;;;3.17;1.20;;;;;;;;;;4999083;28;20036;-68
2022/01/06 06:18:51;;;;;;;6.60;1.15;;;;;;;;;;4994643;28;20022;-69
2022/01/06 06:21:16;;;;;;;1.40;0.90;;;;;;;;;;4997983;28;20128;-69
2022/01/06 06:23:42;;;;;;;1.38;1.00;;;;;;;;;;5001265;28;20103;-69
2022/01/06 06:26:07;;;;;;;2.50;0.80;;;;;;;;;;4996387;28;20097;-69
2022/01/06 06:28:32;;;;;;;1.90;1.00;;;;;;;;;;4993879;28;20066;-69
2022/01/06 06:30:59;;;;;;;2.17;1.20;;;;;;;;;;4997375;28;20034;-69
2022/01/06 06:33:24;;;;;;;2.95;1.08;;;;;;;;;;4996121;28;20042;-68
2022/01/06 06:35:49;;;;;;;3.38;1.00;;;;;;;;;;4999281;28;20814;-68
2022/01/06 06:38:15;;;;;;;0.80;0.80;;;;;;;;;;5001105;28;20619;-69
2022/01/06 06:40:40;;;;;;;4.03;1.10;;;;;;;;;;5016492;28;20087;-69
2022/01/06 06:43:05;;;;;;;2.03;0.98;;;;;;;;;;4998516;28;20034;-68
2022/01/06 06:45:30;;;;;;;2.42;1.10;;;;;;;;;;5001972;28;20084;-68
2022/01/06 06:47:56;;;;;;;4.10;1.10;;;;;;;;;;5002444;28;20153;-68
2022/01/06 06:50:21;;;;;;;1.05;0.85;;;;;;;;;;4997941;28;20069;-69
2022/01/06 06:52:47;;;;;;;2.83;1.00;;;;;;;;;;5000536;28;20480;-69
2022/01/06 06:55:12;;;;;;;2.95;0.90;;;;;;;;;;4996281;28;20041;-69
2022/01/06 06:57:38;;;;;;;7.03;1.40;;;;;;;;;;4995340;28;20039;-68
2022/01/06 07:00:04;;;;;;;2.10;1.10;;;;;;;;;;4995373;28;20125;-68
2022/01/06 07:02:30;;;;;;;0.85;0.85;;;;;;;;;;4993696;28;20103;-68
2022/01/06 07:04:56;;;;;;;1.00;0.88;;;;;;;;;;4995804;28;20042;-69
2022/01/06 07:07:21;;;;;;;3.00;1.23;;;;;;;;;;5001054;28;20768;-69
2022/01/06 07:09:46;;;;;;;1.30;1.20;;;;;;;;;;4999548;28;20448;-71
2022/01/06 07:12:11;;;;;;;2.72;1.10;;;;;;;;;;4998761;28;20023;-70
2022/01/06 07:14:37;;;;;;;3.03;1.00;;;;;;;;;;4997818;28;20064;-70
2022/01/06 07:17:02;;;;;;;3.15;1.00;;;;;;;;;;4997352;28;20066;-70
2022/01/06 07:19:28;;;;;;;0.85;0.82;;;;;;;;;;4997970;28;20096;-70
2022/01/06 07:21:53;;;;;;;2.58;1.13;;;;;;;;;;4998248;28;20391;-70
2022/01/06 07:24:18;;;;;;;1.10;0.98;;;;;;;;;;4999013;28;20207;-70
2022/01/06 07:26:44;;;;;;;3.33;0.90;;;;;;;;;;4999411;28;20044;-70
2022/01/06 07:29:09;;;;;;;4.28;1.10;;;;;;;;;;4997531;28;20038;-70
2022/01/06 07:31:35;;;;;;;2.65;1.10;;;;;;;;;;4997923;28;20061;-70
2022/01/06 07:34:00;;;;;;;4.05;1.08;;;;;;;;;;4998328;28;20460;-70
2022/01/06 07:36:25;;;;;;;3.15;1.00;;;;;;;;;;4996243;28;20041;-71
2022/01/06 07:38:51;;;;;;;1.42;0.93;;;;;;;;;;4997679;28;20037;-70
2022/01/06 07:41:16;;;;;;;1.50;0.70;;;;;;;;;;4996541;28;20088;-70
2022/01/06 07:43:41;;;;;;;2.42;1.00;;;;;;;;;;4982438;28;20034;-70
2022/01/06 07:46:07;;;;;;;1.42;0.90;;;;;;;;;;4997554;28;20026;-70
2022/01/06 07:48:55;;;;;;;1.48;0.98;;;;;;;;;;4997667;28;20065;-70
2022/01/06 07:51:20;;;;;;;0.93;0.93;;;;;;;;;;4998774;28;20029;-70
2022/01/06 07:53:45;;;;;;;2.30;1.17;;;;;;;;;;4998408;28;20068;-71
2022/01/06 07:56:11;;;;;;;1.95;1.20;;;;;;;;;;4997304;28;20046;-71
2022/01/06 07:58:36;;;;;;;8.52;1.33;;;;;;;;;;4999335;28;20072;-71
2022/01/06 08:01:01;;;;;;;4.18;1.75;;;;;;;;;;4998681;28;20057;-71
2022/01/06 08:03:27;;;;;;;6.43;1.73;;;;;;;;;;4996456;28;20473;-70
2022/01/06 08:05:52;;;;;;;3.97;1.25;;;;;;;;;;4997958;28;20030;-70
2022/01/06 08:08:18;;;;;;;1.10;1.00;;;;;;;;;;4994032;28;20412;-71
2022/01/06 08:10:43;;;;;;;5.80;1.30;;;;;;;;;;4997726;28;20488;-71
2022/01/06 08:13:08;;;;;;;2.28;1.13;;;;;;;;;;4998870;28;20028;-71
2022/01/06 08:15:34;;;;;;;2.60;1.25;;;;;;;;;;4997916;28;20029;-71
2022/01/06 08:17:59;;;;;;;2.22;1.20;;;;;;;;;;4996368;28;20113;-71
2022/01/06 08:20:24;;;;;;;3.72;0.95;;;;;;;;;;4999288;28;20076;-71
2022/01/06 08:22:50;;;;;;;2.80;1.10;;;;;;;;;;4997168;28;20438;-70
2022/01/06 08:25:15;;;;;;;2.22;1.35;;;;;;;;;;4995937;28;20070;-70
2022/01/06 08:27:40;;;;;;;2.00;1.40;;;;;;;;;;4996459;28;20060;-70
2022/01/06 08:30:06;;;;;;;4.03;1.52;;;;;;;;;;4997823;28;20104;-70
2022/01/06 08:32:32;;;;;;;1.30;1.20;;;;;;;;;;4994991;28;20072;-70
2022/01/06 08:34:57;;;;;;;2.63;1.20;;;;;;;;;;4993730;28;20145;-70
2022/01/06 08:37:22;;;;;;;2.50;1.00;;;;;;;;;;4993311;28;20044;-70
2022/01/06 08:39:48;;;;;;;2.95;1.30;;;;;;;;;;4976606;28;20096;-70
2022/01/06 08:42:13;;;;;;;2.28;1.30;;;;;;;;;;4994790;28;20083;-70
2022/01/06 08:44:39;;;;;;;2.25;1.30;;;;;;;;;;4992960;28;20017;-70
2022/01/06 08:47:06;;;;;;;1.13;1.05;;;;;;;;;;4977716;28;20041;-70
2022/01/06 08:49:32;;;;;;;1.92;1.17;;;;;;;;;;4995790;28;20073;-68
2022/01/06 08:51:57;;;;;;;2.80;0.98;;;;;;;;;;4994649;28;20066;-68
2022/01/06 08:54:22;;;;;;;6.38;1.02;;;;;;;;;;4995376;28;20117;-71
2022/01/06 08:56:48;;;;;;;1.83;1.23;;;;;;;;;;4995330;28;20137;-71
2022/01/06 08:59:13;;;;;;;2.92;1.50;;;;;;;;;;4993089;28;20139;-70
2022/01/06 09:01:38;;;;;;;1.88;1.17;;;;;;;;;;4978003;28;20141;-70
2022/01/06 09:04:04;;;;;;;5.07;1.50;;;;;;;;;;4993088;28;20057;-71
2022/01/06 09:06:29;;;;;;;4.05;1.50;;;;;;;;;;4995728;28;20209;-70
2022/01/06 09:08:54;;;;;;;3.05;1.80;;;;;;;;;;4993388;28;20670;-70
2022/01/06 09:11:20;;;;;;;5.13;1.45;;;;;;;;;;4994359;28;20037;-70
2022/01/06 09:13:45;;;;;;;1.40;1.13;;;;;;;;;;4995197;28;20062;-70
2022/01/06 09:16:11;;;;;;;5.28;1.63;;;;;;;;;;4995827;28;20062;-70
2022/01/06 09:18:36;;;;;;;4.00;1.90;;;;;;;;;;4976000;28;20029;-70
2022/01/06 09:21:02;;;;;;;2.53;1.50;;;;;;;;;;4990238;28;20483;-71
2022/01/06 09:23:27;;;;;;;3.30;1.23;;;;;;;;;;4994342;28;20033;-71
2022/01/06 09:25:52;;;;;;;8.80;1.75;;;;;;;;;;4993774;28;20831;-70
2022/01/06 09:28:18;;;;;;;9.05;1.45;;;;;;;;;;4994852;28;20067;-70
2022/01/06 09:30:43;;;;;;;1.70;1.20;;;;;;;;;;4993961;28;20120;-70
2022/01/06 09:33:08;;;;;;;3.50;1.15;;;;;;;;;;4995379;28;20117;-70
2022/01/06 09:35:34;;;;;;;2.15;1.20;;;;;;;;;;4996434;28;20076;-71
2022/01/06 09:37:59;;;;;;;4.65;1.48;;;;;;;;;;4993533;28;20036;-71
2022/01/06 09:40:25;;;;;;;4.70;1.20;;;;;;;;;;4992025;28;20100;-71
2022/01/06 09:42:50;;;;;;;3.72;1.50;;;;;;;;;;4990420;28;20117;-70
2022/01/06 09:45:16;;;;;;;4.93;1.60;;;;;;;;;;4993443;28;20077;-70
2022/01/06 09:47:42;;;;;;;2.42;1.23;;;;;;;;;;4992687;28;20030;-70
2022/01/06 09:50:08;;;;;;;1.95;1.13;;;;;;;;;;4972992;28;20115;-71
2022/01/06 09:52:34;;;;;;;1.30;1.20;;;;;;;;;;4994205;28;20347;-70
2022/01/06 09:54:59;;;;;;;6.07;1.40;;;;;;;;;;4991857;28;20069;-70
2022/01/06 09:57:25;;;;;;;4.47;1.27;;;;;;;;;;4993652;28;20048;-70
2022/01/06 09:59:50;;;;;;;3.95;1.50;;;;;;;;;;4992496;28;20038;-70
2022/01/06 10:02:16;;;;;;;2.08;1.35;;;;;;;;;;4994502;28;20085;-71
2022/01/06 10:04:45;;;;;;;2.65;1.23;;;;;;;;;;4993497;28;20029;-70
2022/01/06 10:07:11;;;;;;;1.30;1.20;;;;;;;;;;4995367;28;20065;-70
2022/01/06 10:09:37;;;;;;;5.50;1.60;;;;;;;;;;4996371;28;20120;-71
2022/01/06 10:12:13;;;;;;;6.72;1.65;;;;;;;;;;4993883;28;20670;-71
2022/01/06 10:14:46;;;;;;;2.55;1.50;;;;;;;;;;4996586;28;20026;-70
2022/01/06 10:17:14;;;;;;;4.95;2.03;;;;;;;;;;4993740;28;20030;-70
2022/01/06 10:19:43;;;;;;;1.88;1.10;;;;;;;;;;4993388;28;20058;-70
2022/01/06 10:22:17;;;;;;;3.40;1.40;;;;;;;;;;4992698;28;20385;-70
2022/01/06 10:24:44;;;;;;;1.55;1.40;;;;;;;;;;4994782;28;20044;-70
2022/01/06 10:27:10;;;;;;;4.50;1.42;;;;;;;;;;4976945;28;20034;-70
2022/01/06 10:29:40;;;;;;;2.17;1.50;;;;;;;;;;4990887;28;20020;-70
2022/01/06 10:32:07;;;;;;;3.25;1.60;;;;;;;;;;4979078;28;20049;-70
2022/01/06 10:34:34;;;;;;;5.07;2.28;;;;;;;;;;4981484;28;20036;-71
2022/01/06 10:37:00;;;;;;;2.72;1.35;;;;;;;;;;4983431;28;20030;-71
2022/01/06 10:39:25;;;;;;;2.20;1.45;;;;;;;;;;4995784;28;20029;-71
2022/01/06 10:41:51;;;;;;;2.70;1.60;;;;;;;;;;4976511;28;20030;-71
2022/01/06 10:44:16;;;;;;;3.88;1.55;;;;;;;;;;4992156;28;20481;-71
2022/01/06 10:46:42;;;;;;;4.00;1.40;;;;;;;;;;4994379;28;20018;-70
2022/01/06 10:49:09;;;;;;;3.97;1.45;;;;;;;;;;4991425;28;20033;-70
2022/01/06 10:51:45;;;;;;;5.22;1.63;;;;;;;;;;4994938;28;20064;-70
2022/01/06 10:54:14;;;;;;;3.22;1.63;;;;;;;;;;4993621;28;20030;-70
2022/01/06 10:56:40;;;;;;;4.68;1.80;;;;;;;;;;4994989;28;20041;-70
2022/01/06 10:59:05;;;;;;;5.00;1.77;;;;;;;;;;4991715;28;20036;-70
2022/01/06 11:01:34;;;;;;;2.20;1.50;;;;;;;;;;4992978;28;20042;-71
2022/01/06 11:04:00;;;;;;;1.92;1.60;;;;;;;;;;4994352;28;20026;-71
2022/01/06 11:06:25;;;;;;;11.00;1.77;;;;;;;;;;4974974;28;20540;-70
2022/01/06 11:08:51;;;;;;;1.60;1.50;;;;;;;;;;4994252;28;20591;-70
2022/01/06 11:11:30;;;;;;;2.17;1.50;;;;;;;;;;4981286;28;20113;-70
2022/01/06 11:13:55;;;;;;;3.60;1.90;;;;;;;;;;4997015;28;20025;-71
2022/01/06 11:16:21;;;;;;;4.13;1.90;;;;;;;;;;4963748;28;20034;-71
2022/01/06 11:18:54;;;;;;;6.35;2.00;;;;;;;;;;4980815;28;20030;-70
2022/01/06 11:21:25;;;;;;;4.53;2.13;;;;;;;;;;4995737;28;20186;-70
2022/01/06 11:24:03;;;;;;;2.95;1.55;;;;;;;;;;4995384;28;20025;-70
2022/01/06 11:26:29;;;;;;;3.05;1.88;;;;;;;;;;4997713;28;20124;-70
2022/01/06 11:28:58;;;;;;;3.70;2.08;;;;;;;;;;4996737;28;20061;-70
2022/01/06 11:31:24;;;;;;;2.63;1.90;;;;;;;;;;4996641;28;20042;-70
2022/01/06 11:33:52;;;;;;;4.50;2.00;;;;;;;;;;5011694;28;20108;-70
2022/01/06 11:36:17;;;;;;;4.50;1.77;;;;;;;;;;4997154;28;20065;-70
2022/01/06 11:38:46;;;;;;;1.83;1.60;;;;;;;;;;4999557;28;20080;-70
2022/01/06 11:41:11;;;;;;;6.85;1.90;;;;;;;;;;4997915;28;20018;-71
2022/01/06 11:43:38;;;;;;;3.38;1.80;;;;;;;;;;4996250;28;20131;-71
2022/01/06 11:46:03;;;;;;;4.13;1.90;;;;;;;;;;4996825;28;20030;-70
2022/01/06 11:48:28;;;;;;;3.35;1.77;;;;;;;;;;4996464;28;20084;-71
2022/01/06 11:50:54;;;;;;;6.18;1.80;;;;;;;;;;4979525;28;20034;-71
2022/01/06 11:53:29;;;;;;;6.90;2.20;;;;;;;;;;4977651;28;20255;-71
2022/01/06 11:55:54;;;;;;;6.93;1.90;;;;;;;;;;4998605;28;20027;-71
2022/01/06 11:58:22;;;;;;;3.90;1.92;;;;;;;;;;4998088;28;20729;-71
2022/01/06 12:00:54;;;;;;;5.65;1.90;;;;;;;;;;4979020;28;20040;-71
2022/01/06 12:03:20;;;;;;;7.72;2.50;;;;;;;;;;4993525;28;20097;-70
2022/01/06 12:05:45;;;;;;;4.50;2.20;;;;;;;;;;4992668;28;20146;-71
2022/01/06 12:08:11;;;;;;;4.45;2.00;;;;;;;;;;4993071;28;20034;-71
2022/01/06 12:10:44;;;;;;;5.20;2.40;;;;;;;;;;4979837;28;20030;-71
2022/01/06 12:13:09;;;;;;;6.93;2.42;;;;;;;;;;4979959;28;20402;-70
2022/01/06 12:15:45;;;;;;;6.15;2.25;;;;;;;;;;4996308;28;20081;-70
2022/01/06 12:18:10;;;;;;;3.22;2.30;;;;;;;;;;4996782;28;20076;-70
2022/01/06 12:20:35;;;;;;;3.88;2.00;;;;;;;;;;4994672;28;20042;-71
2022/01/06 12:23:00;;;;;;;3.50;1.98;;;;;;;;;;4994582;28;20468;-70
2022/01/06 12:25:26;;;;;;;4.57;2.97;;;;;;;;;;4995391;28;20519;-70
2022/01/06 12:27:54;;;;;;;6.82;2.20;;;;;;;;;;4996743;28;20108;-70
2022/01/06 12:30:22;;;;;;;2.55;2.10;;;;;;;;;;4995972;28;20021;-71
2022/01/06 12:33:14;;;;;;;9.88;2.70;;;;;;;;;;4995467;28;20481;-70
2022/01/06 12:35:48;;;;;;;6.28;2.08;;;;;;;;;;4991232;28;20093;-71
2022/01/06 12:38:14;;;;;;;6.55;2.30;;;;;;;;;;4995385;28;20026;-70
2022/01/06 12:40:41;;;;;;;3.47;2.00;;;;;;;;;;4996043;28;20054;-70
2022/01/06 12:43:21;;;;;;;4.95;1.95;;;;;;;;;;4994535;28;20033;-70
2022/01/06 12:45:49;;;;;;;3.90;2.30;;;;;;;;;;4993380;28;20424;-70
2022/01/06 12:48:14;;;;;;;6.30;2.05;;;;;;;;;;4994313;28;20420;-71
2022/01/06 12:50:48;;;;;;;5.47;2.08;;;;;;;;;;4952042;28;20065;-70
2022/01/06 12:53:37;;;;;;;4.87;2.00;;;;;;;;;;4976485;28;20345;-70
2022/01/06 12:56:03;;;;;;;7.15;2.22;;;;;;;;;;4978915;28;20337;-70
2022/01/06 12:58:32;;;;;;;6.57;2.65;;;;;;;;;;4990799;28;20034;-70
2022/01/06 13:01:02;;;;;;;2.85;2.38;;;;;;;;;;4990134;28;20501;-70
2022/01/06 13:03:36;;;;;;;8.13;3.17;;;;;;;;;;4992577;28;20029;-70
2022/01/06 13:06:05;;;;;;;8.63;4.07;;;;;;;;;;4991562;28;21000;-71
2022/01/06 13:08:30;;;;;;;11.00;4.63;;;;;;;;;;4993002;28;20040;-70
2022/01/06 13:11:03;;;;;;;8.82;3.40;;;;;;;;;;4994163;28;20037;-70
2022/01/06 13:13:28;;;;;;;5.35;3.60;;;;;;;;;;4992765;28;20021;-70
2022/01/06 13:15:54;;;;;;;4.78;2.90;;;;;;;;;;4992180;28;20053;-70
2022/01/06 13:18:28;;;;;;;7.70;3.13;;;;;;;;;;4990696;28;20041;-71
2022/01/06 13:20:58;;;;;;;4.80;2.53;;;;;;;;;;4995296;28;20481;-71
2022/01/06 13:26:09;;;;;;;3.08;2.25;;;;;;;;;;4975098;28;20538;-71
2022/01/06 13:28:35;;;;;;;6.20;3.28;;;;;;;;;;4990554;28;20034;-70
2022/01/06 13:31:01;;;;;;;7.18;3.50;;;;;;;;;;4988679;28;20042;-70
2022/01/06 13:33:28;;;;;;;8.07;2.80;;;;;;;;;;4991052;28;20366;-70
2022/01/06 13:36:00;;;;;;;5.57;2.67;;;;;;;;;;4991069;28;20042;-71
2022/01/06 13:38:32;;;;;;;7.15;2.60;;;;;;;;;;4992875;28;20033;-71
2022/01/06 13:40:59;;;;;;;4.30;1.83;;;;;;;;;;4977234;28;20025;-70
2022/01/06 13:43:26;;;;;;;3.30;1.95;;;;;;;;;;4975520;28;20103;-71
2022/01/06 13:45:51;;;;;;;5.03;2.28;;;;;;;;;;4994433;28;20045;-70
2022/01/06 13:51:04;;;;;;;6.80;2.60;;;;;;;;;;4976977;28;20030;-70
2022/01/06 13:53:36;;;;;;;4.93;2.45;;;;;;;;;;4993009;28;20404;-71
2022/01/06 13:56:21;;;;;;;4.43;2.42;;;;;;;;;;4992186;28;20037;-70
2022/01/06 13:58:48;;;;;;;3.75;2.17;;;;;;;;;;4977322;28;20514;-71
2022/01/06 14:01:15;;;;;;;8.32;2.63;;;;;;;;;;4974354;28;20063;-71
2022/01/06 14:03:40;;;;;;;4.82;2.45;;;;;;;;;;4995035;28;20022;-71
2022/01/06 14:06:08;;;;;;;6.35;2.65;;;;;;;;;;4994593;28;20022;-71
2022/01/06 14:08:34;;;;;;;5.65;2.03;;;;;;;;;;4972861;28;21457;-71
2022/01/06 14:11:01;;;;;;;8.57;2.30;;;;;;;;;;4990272;28;20038;-71
2022/01/06 14:13:26;;;;;;;4.32;1.83;;;;;;;;;;4995325;28;20439;-71
2022/01/06 14:15:52;;;;;;;6.07;2.40;;;;;;;;;;4992033;28;20030;-69
2022/01/06 14:18:18;;;;;;;4.97;2.00;;;;;;;;;;5008454;28;20038;-71
2022/01/06 14:20:44;;;;;;;4.82;2.17;;;;;;;;;;4976229;28;20431;-69
2022/01/06 14:23:09;;;;;;;2.10;1.60;;;;;;;;;;4994854;28;20081;-71
2022/01/06 14:25:34;;;;;;;4.43;1.95;;;;;;;;;;4995869;28;20026;-69
2022/01/06 14:28:00;;;;;;;2.35;1.98;;;;;;;;;;4993732;28;20040;-71
2022/01/06 14:30:25;;;;;;;5.05;2.00;;;;;;;;;;4993188;28;20477;-71
2022/01/06 14:32:51;;;;;;;5.55;2.22;;;;;;;;;;4995132;28;21997;-71
2022/01/06 14:35:16;;;;;;;4.13;1.92;;;;;;;;;;4994292;28;20042;-71
2022/01/06 14:37:41;;;;;;;4.60;2.45;;;;;;;;;;4994507;28;20416;-71
2022/01/06 14:40:08;;;;;;;5.03;2.35;;;;;;;;;;4976878;28;20030;-71
2022/01/06 14:42:33;;;;;;;4.50;2.35;;;;;;;;;;4996233;28;20069;-71
2022/01/06 14:44:58;;;;;;;5.43;2.00;;;;;;;;;;4997138;28;20453;-71
2022/01/06 14:47:24;;;;;;;4.70;2.28;;;;;;;;;;4998137;28;20504;-70
2022/01/06 14:49:49;;;;;;;5.95;2.10;;;;;;;;;;4997405;28;20042;-71
2022/01/06 14:52:14;;;;;;;3.47;2.22;;;;;;;;;;5009416;28;20485;-71